createdAt,value
2024-03-15T00:00:21.679Z,1.33
2024-03-15T00:02:48.650Z,1.65
2024-03-15T00:05:22.299Z,1.00
2024-03-15T00:07:49.050Z,1.23
2024-03-15T00:10:15.933Z,1.27
2024-03-15T00:12:42.966Z,1.58
2024-03-15T00:15:11.883Z,0.80
2024-03-15T00:17:38.511Z,1.30
2024-03-15T00:20:12.314Z,1.38
2024-03-15T00:22:38.950Z,1.95
2024-03-15T00:25:15.205Z,1.65
2024-03-15T00:27:42.298Z,1.05
2024-03-15T00:30:09.650Z,1.17
2024-03-15T00:32:39.396Z,2.22
2024-03-15T00:35:09.919Z,1.70
2024-03-15T00:37:38.826Z,0.80
2024-03-15T00:40:08.271Z,1.67
2024-03-15T00:42:34.950Z,1.60
2024-03-15T00:45:03.840Z,1.20
2024-03-15T00:47:31.817Z,1.73
2024-03-15T00:49:58.403Z,1.17
2024-03-15T00:52:27.060Z,1.33
2024-03-15T00:54:53.697Z,1.25
2024-03-15T00:57:22.480Z,0.77
2024-03-15T00:59:49.168Z,1.42
2024-03-15T01:02:21.197Z,1.52
2024-03-15T01:04:47.865Z,0.65
2024-03-15T01:07:16.135Z,0.95
2024-03-15T01:09:47.787Z,0.57
2024-03-15T01:12:16.709Z,0.90
2024-03-15T01:14:43.268Z,0.63
2024-03-15T01:17:12.482Z,1.38
2024-03-15T01:19:39.025Z,1.33
2024-03-15T01:22:05.679Z,1.08
2024-03-15T01:24:32.244Z,0.85
2024-03-15T01:26:58.777Z,0.60
2024-03-15T01:29:29.369Z,1.02
2024-03-15T01:31:56.044Z,1.15
2024-03-15T01:34:23.147Z,1.58
2024-03-15T01:36:49.701Z,1.38
2024-03-15T01:39:16.565Z,0.60
2024-03-15T01:41:45.573Z,0.75
2024-03-15T01:44:12.192Z,1.02
2024-03-15T01:46:43.300Z,0.40
2024-03-15T01:49:16.139Z,1.05
2024-03-15T01:51:45.160Z,1.35
2024-03-15T01:54:12.107Z,1.23
2024-03-15T01:56:38.844Z,0.63
2024-03-15T01:59:05.458Z,0.45
2024-03-15T02:01:32.636Z,0.98
2024-03-15T02:04:00.188Z,0.40
2024-03-15T02:06:26.739Z,0.85
2024-03-15T02:08:56.682Z,0.82
2024-03-15T02:11:23.971Z,0.60
2024-03-15T02:13:51.243Z,0.82
2024-03-15T02:16:17.882Z,0.65
2024-03-15T02:18:44.666Z,1.00
2024-03-15T02:21:13.784Z,0.90
2024-03-15T02:23:41.253Z,1.15
2024-03-15T02:26:08.605Z,1.42
2024-03-15T02:28:35.353Z,1.15
2024-03-15T02:31:02.002Z,1.50
2024-03-15T02:33:28.676Z,0.93
2024-03-15T02:35:57.590Z,1.00
2024-03-15T02:38:27.987Z,1.00
2024-03-15T02:40:55.020Z,0.70
2024-03-15T02:43:21.579Z,0.60
2024-03-15T02:45:51.285Z,0.60
2024-03-15T02:48:18.180Z,0.68
2024-03-15T02:50:44.812Z,0.70
2024-03-15T02:53:13.555Z,0.95
2024-03-15T02:55:40.238Z,1.20
2024-03-15T02:58:09.043Z,0.45
2024-03-15T03:00:38.220Z,1.02
2024-03-15T03:03:06.799Z,0.70
2024-03-15T03:05:37.276Z,0.50
2024-03-15T03:08:05.603Z,0.50
2024-03-15T03:10:37.768Z,1.00
2024-03-15T03:13:04.615Z,0.50
2024-03-15T03:15:33.637Z,1.00
2024-03-15T03:18:00.675Z,0.50
2024-03-15T03:20:34.063Z,0.63
2024-03-15T03:23:01.126Z,0.70
2024-03-15T03:25:27.685Z,0.73
2024-03-15T03:27:54.379Z,0.60
2024-03-15T03:30:21.106Z,0.43
2024-03-15T03:32:47.736Z,0.50
2024-03-15T03:35:14.403Z,0.57
2024-03-15T03:37:41.014Z,0.75
2024-03-15T03:40:16.183Z,0.22
2024-03-15T03:42:45.965Z,0.50
2024-03-15T03:45:23.951Z,0.90
2024-03-15T03:47:51.392Z,0.45
2024-03-15T03:50:21.303Z,1.00
2024-03-15T03:52:48.353Z,0.70
2024-03-15T03:55:15.333Z,1.40
2024-03-15T03:57:46.172Z,0.95
2024-03-15T04:00:18.929Z,0.63
2024-03-15T04:02:47.775Z,0.63
2024-03-15T04:05:19.466Z,0.60
2024-03-15T04:07:49.776Z,0.20
2024-03-15T04:10:19.505Z,1.05
2024-03-15T04:12:47.184Z,0.35
2024-03-15T04:15:25.733Z,1.02
2024-03-15T04:18:00.242Z,0.90
2024-03-15T04:20:27.789Z,0.70
2024-03-15T04:22:54.717Z,0.63
2024-03-15T04:25:21.795Z,1.42
2024-03-15T04:27:53.142Z,1.40
2024-03-15T04:30:23.328Z,0.47
2024-03-15T04:32:53.501Z,0.55
2024-03-15T04:35:24.173Z,0.75
2024-03-15T04:37:55.701Z,0.73
2024-03-15T04:40:22.260Z,0.45
2024-03-15T04:42:52.395Z,0.77
2024-03-15T04:45:19.101Z,0.65
2024-03-15T04:47:45.953Z,0.70
2024-03-15T04:50:12.659Z,0.52
2024-03-15T04:52:42.371Z,0.55
2024-03-15T04:55:11.484Z,0.22
2024-03-15T04:57:39.984Z,0.52
2024-03-15T05:00:21.042Z,0.30
2024-03-15T05:02:52.141Z,0.90
2024-03-15T05:05:22.842Z,0.17
2024-03-15T05:07:54.809Z,0.60
2024-03-15T05:12:54.476Z,0.57
2024-03-15T05:15:23.573Z,0.28
2024-03-15T05:17:50.483Z,0.10
2024-03-15T05:20:17.293Z,0.80
2024-03-15T05:22:50.828Z,0.30
2024-03-15T05:25:22.273Z,0.52
2024-03-15T05:27:50.162Z,0.47
2024-03-15T05:30:19.928Z,0.45
2024-03-15T05:32:47.057Z,0.75
2024-03-15T05:35:19.368Z,0.73
2024-03-15T05:37:46.617Z,0.30
2024-03-15T05:40:14.097Z,0.30
2024-03-15T05:42:45.692Z,0.50
2024-03-15T05:45:14.210Z,0.68
2024-03-15T05:47:40.949Z,0.40
2024-03-15T05:50:08.419Z,1.08
2024-03-15T05:52:40.199Z,0.25
2024-03-15T05:55:12.886Z,0.20
2024-03-15T05:57:44.193Z,0.75
2024-03-15T06:00:17.169Z,0.40
2024-03-15T06:02:45.293Z,0.43
2024-03-15T06:05:12.076Z,0.38
2024-03-15T06:07:40.922Z,0.50
2024-03-15T06:10:08.032Z,0.93
2024-03-15T06:12:37.362Z,0.35
2024-03-15T06:15:04.862Z,0.20
2024-03-15T06:17:34.250Z,0.55
2024-03-15T06:20:04.585Z,0.20
2024-03-15T06:22:31.777Z,0.80
2024-03-15T06:25:00.353Z,1.00
2024-03-15T06:27:29.773Z,0.88
2024-03-15T06:29:56.845Z,0.20
2024-03-15T06:32:30.707Z,0.40
2024-03-15T06:35:03.802Z,0.93
2024-03-15T06:37:30.502Z,0.10
2024-03-15T06:39:57.046Z,0.20
2024-03-15T06:42:38.906Z,0.57
2024-03-15T06:45:25.090Z,0.55
2024-03-15T06:48:04.470Z,0.55
2024-03-15T06:51:00.394Z,0.30
2024-03-15T06:53:29.735Z,0.75
2024-03-15T06:55:59.489Z,6.22
2024-03-15T06:58:29.287Z,6.82
2024-03-15T07:00:59.423Z,6.45
2024-03-15T07:03:26.143Z,7.60
2024-03-15T07:05:59.157Z,6.35
2024-03-15T07:08:25.765Z,8.93
2024-03-15T07:10:52.396Z,7.43
2024-03-15T07:13:19.296Z,9.50
2024-03-15T07:15:45.867Z,5.03
2024-03-15T07:18:15.088Z,7.45
2024-03-15T07:20:42.635Z,6.47
2024-03-15T07:23:09.168Z,6.68
2024-03-15T07:25:38.827Z,6.18
2024-03-15T07:28:05.796Z,6.63
2024-03-15T07:30:32.828Z,7.53
2024-03-15T07:32:59.452Z,5.82
2024-03-15T07:35:28.711Z,6.55
2024-03-15T07:37:55.460Z,6.78
2024-03-15T07:40:22.051Z,7.80
2024-03-15T07:42:49.883Z,5.75
2024-03-15T07:45:17.415Z,7.35
2024-03-15T07:47:44.074Z,4.25
2024-03-15T07:50:13.444Z,5.38
2024-03-15T07:52:44.652Z,6.35
2024-03-15T07:55:14.104Z,4.78
2024-03-15T07:57:41.743Z,6.05
2024-03-15T08:00:10.659Z,5.05
2024-03-15T08:02:37.322Z,4.60
2024-03-15T08:05:08.709Z,4.65
2024-03-15T08:07:35.696Z,4.88
2024-03-15T08:10:06.790Z,6.05
2024-03-15T08:12:33.597Z,4.28
2024-03-15T08:15:03.584Z,4.93
2024-03-15T08:17:32.526Z,5.25
2024-03-15T08:19:59.079Z,7.60
2024-03-15T08:22:28.528Z,4.38
2024-03-15T08:24:57.492Z,4.28
2024-03-15T08:27:24.078Z,3.58
2024-03-15T08:29:50.671Z,5.97
2024-03-15T08:32:19.572Z,4.53
2024-03-15T08:34:50.232Z,3.78
2024-03-15T08:37:19.096Z,4.25
2024-03-15T08:39:48.401Z,4.07
2024-03-15T08:42:17.471Z,4.70
2024-03-15T08:44:47.988Z,4.78
2024-03-15T08:47:17.154Z,5.78
2024-03-15T08:49:43.942Z,4.20
2024-03-15T08:52:10.747Z,4.65
2024-03-15T08:54:37.524Z,3.63
2024-03-15T08:57:06.138Z,5.43
2024-03-15T08:59:32.752Z,4.13
2024-03-15T09:01:59.578Z,3.55
2024-03-15T09:04:26.990Z,4.75
2024-03-15T09:06:56.907Z,5.32
2024-03-15T09:09:33.896Z,2.85
2024-03-15T09:12:00.698Z,4.03
2024-03-15T09:14:30.248Z,4.40
2024-03-15T09:17:00.071Z,2.92
2024-03-15T09:19:29.566Z,3.65
2024-03-15T09:22:00.622Z,4.97
2024-03-15T09:24:27.678Z,4.75
2024-03-15T09:26:57.079Z,3.65
2024-03-15T09:29:24.556Z,3.03
2024-03-15T09:32:07.229Z,5.70
2024-03-15T09:34:41.667Z,3.22
2024-03-15T09:37:13.911Z,4.63
2024-03-15T09:39:44.137Z,4.63
2024-03-15T09:42:24.025Z,3.75
2024-03-15T09:44:51.134Z,3.50
2024-03-15T09:47:17.867Z,2.90
2024-03-15T09:49:47.670Z,3.50
2024-03-15T09:52:21.464Z,2.97
2024-03-15T09:54:50.435Z,3.38
2024-03-15T09:57:23.353Z,5.75
2024-03-15T09:59:55.103Z,3.22
2024-03-15T10:02:25.215Z,2.58
2024-03-15T10:05:00.173Z,5.05
2024-03-15T10:07:29.944Z,4.95
2024-03-15T10:09:59.079Z,3.72
2024-03-15T10:12:25.808Z,5.50
2024-03-15T10:14:54.910Z,3.15
2024-03-15T10:17:22.439Z,2.80
2024-03-15T10:19:48.945Z,4.15
2024-03-15T10:22:15.569Z,2.75
2024-03-15T10:24:42.137Z,4.05
2024-03-15T10:27:14.304Z,3.35
2024-03-15T10:29:44.824Z,2.85
2024-03-15T10:32:12.145Z,2.83
2024-03-15T10:34:39.239Z,2.95
2024-03-15T10:37:13.710Z,3.42
2024-03-15T10:39:41.933Z,2.25
2024-03-15T10:42:14.449Z,2.65
2024-03-15T10:44:41.253Z,2.40
2024-03-15T10:47:16.006Z,3.03
2024-03-15T10:49:43.451Z,3.28
2024-03-15T10:52:13.357Z,2.80
2024-03-15T10:54:42.844Z,3.03
2024-03-15T10:57:12.962Z,2.88
2024-03-15T10:59:42.511Z,2.63
2024-03-15T11:02:14.511Z,3.00
2024-03-15T11:04:41.144Z,3.35
2024-03-15T11:07:10.914Z,4.35
2024-03-15T11:09:43.151Z,3.13
2024-03-15T11:12:16.113Z,4.55
2024-03-15T11:14:43.039Z,2.78
2024-03-15T11:17:20.201Z,2.90
2024-03-15T11:19:48.734Z,2.97
2024-03-15T11:22:21.560Z,3.42
2024-03-15T11:24:51.323Z,3.17
2024-03-15T11:27:18.418Z,2.50
2024-03-15T11:29:50.836Z,2.50
2024-03-15T11:32:18.658Z,3.22
2024-03-15T11:34:48.340Z,3.17
2024-03-15T11:37:22.004Z,3.97
2024-03-15T11:39:59.233Z,3.17
2024-03-15T11:42:26.134Z,1.90
2024-03-15T11:44:57.733Z,2.92
2024-03-15T11:49:58.016Z,2.63
2024-03-15T11:52:29.402Z,2.80
2024-03-15T11:54:59.383Z,2.95
2024-03-15T11:57:32.548Z,1.98
2024-03-15T11:59:59.101Z,2.05
2024-03-15T12:02:27.542Z,3.45
2024-03-15T12:04:55.381Z,2.33
2024-03-15T12:07:22.031Z,3.58
2024-03-15T12:09:50.771Z,2.33
2024-03-15T12:12:22.537Z,3.05
2024-03-15T12:14:51.776Z,2.65
2024-03-15T12:17:18.957Z,2.53
2024-03-15T12:19:45.581Z,2.22
2024-03-15T12:22:14.764Z,2.80
2024-03-15T12:24:44.286Z,1.80
2024-03-15T12:27:11.351Z,1.98
2024-03-15T12:29:40.090Z,1.63
2024-03-15T12:32:06.825Z,2.40
2024-03-15T12:34:33.392Z,2.88
2024-03-15T12:37:02.796Z,2.20
2024-03-15T12:39:29.496Z,2.63
2024-03-15T12:42:01.117Z,2.53
2024-03-15T12:46:56.866Z,2.53
2024-03-15T12:49:25.726Z,2.58
2024-03-15T12:51:55.074Z,2.35
2024-03-15T12:54:26.514Z,1.85
2024-03-15T12:56:53.080Z,2.33
2024-03-15T12:59:19.619Z,2.95
2024-03-15T13:01:46.272Z,1.92
2024-03-15T13:04:15.246Z,2.25
2024-03-15T13:06:42.601Z,3.50
2024-03-15T13:09:09.272Z,2.85
2024-03-15T13:11:36.842Z,1.77
2024-03-15T13:14:03.710Z,2.25
2024-03-15T13:16:35.170Z,2.33
2024-03-15T13:19:01.797Z,1.30
2024-03-15T13:21:31.287Z,3.03
2024-03-15T13:24:00.089Z,2.38
2024-03-15T13:26:26.685Z,2.38
2024-03-15T13:28:55.112Z,3.00
2024-03-15T13:31:22.179Z,2.75
2024-03-15T13:33:51.130Z,2.15
2024-03-15T13:36:17.858Z,3.97
2024-03-15T13:38:48.568Z,2.40
2024-03-15T13:41:15.324Z,3.57
2024-03-15T13:43:43.990Z,2.10
2024-03-15T13:46:13.964Z,2.33
2024-03-15T13:48:45.171Z,1.70
2024-03-15T13:51:14.850Z,3.13
2024-03-15T13:53:45.989Z,3.17
2024-03-15T13:56:14.261Z,2.67
2024-03-15T13:58:41.102Z,1.45
2024-03-15T14:01:12.885Z,3.22
2024-03-15T14:03:42.107Z,3.42
2024-03-15T14:06:11.536Z,4.82
2024-03-15T14:08:38.178Z,1.83
2024-03-15T14:11:04.847Z,2.33
2024-03-15T14:13:33.613Z,2.10
2024-03-15T14:16:01.615Z,2.58
2024-03-15T14:18:32.663Z,2.13
2024-03-15T14:20:59.379Z,3.10
2024-03-15T14:23:27.826Z,4.00
2024-03-15T14:25:56.640Z,2.85
2024-03-15T14:28:29.462Z,3.67
2024-03-15T14:31:02.241Z,2.03
2024-03-15T14:33:32.929Z,2.55
2024-03-15T14:36:02.560Z,3.97
2024-03-15T14:38:31.229Z,3.10
2024-03-15T14:40:58.232Z,2.17
2024-03-15T14:43:25.245Z,2.70
2024-03-15T14:45:52.573Z,3.92
2024-03-15T14:48:24.189Z,4.32
2024-03-15T14:50:52.272Z,2.83
2024-03-15T14:53:21.533Z,2.17
2024-03-15T14:55:48.299Z,3.88
2024-03-15T14:58:17.197Z,2.22
2024-03-15T15:00:45.219Z,1.73
2024-03-15T15:03:12.627Z,2.00
2024-03-15T15:05:39.899Z,1.60
2024-03-15T15:08:09.762Z,2.47
2024-03-15T15:10:39.525Z,2.95
2024-03-15T15:13:07.688Z,2.20
2024-03-15T15:15:35.884Z,2.45
2024-03-15T15:18:04.934Z,3.30
2024-03-15T15:20:34.283Z,3.25
2024-03-15T15:23:07.031Z,3.38
2024-03-15T15:25:38.472Z,1.85
2024-03-15T15:28:07.666Z,8.48
2024-03-15T15:30:34.800Z,2.75
2024-03-15T15:33:05.049Z,9.10
2024-03-15T15:35:31.968Z,13.60
2024-03-15T15:38:00.018Z,15.38
2024-03-15T15:40:31.804Z,11.60
2024-03-15T15:42:59.358Z,11.13
2024-03-15T15:45:32.761Z,13.93
2024-03-15T15:48:01.049Z,15.73
2024-03-15T15:50:30.353Z,12.43
2024-03-15T15:52:57.027Z,11.82
2024-03-15T15:55:24.408Z,9.68
2024-03-15T15:57:56.116Z,10.10
2024-03-15T16:00:25.726Z,9.13
2024-03-15T16:02:54.657Z,12.75
2024-03-15T16:05:21.375Z,9.02
2024-03-15T16:07:48.065Z,9.55
2024-03-15T16:10:16.655Z,8.82
2024-03-15T16:12:49.124Z,7.85
2024-03-15T16:17:42.707Z,9.65
2024-03-15T16:20:14.421Z,8.05
2024-03-15T16:22:41.093Z,8.45
2024-03-15T16:25:08.100Z,8.23
2024-03-15T16:27:34.951Z,10.02
2024-03-15T16:30:05.617Z,9.52
2024-03-15T16:32:33.545Z,8.63
2024-03-15T16:35:07.594Z,7.15
2024-03-15T16:37:35.100Z,8.15
2024-03-15T16:40:02.048Z,9.15
2024-03-15T16:42:33.234Z,6.82
2024-03-15T16:45:03.013Z,8.23
2024-03-15T16:47:30.000Z,7.82
2024-03-15T16:50:01.401Z,6.25
2024-03-15T16:52:29.589Z,9.18
2024-03-15T16:54:56.527Z,8.07
2024-03-15T16:57:28.172Z,7.55
2024-03-15T16:59:54.804Z,7.45
2024-03-15T17:02:21.681Z,7.90
2024-03-15T17:04:50.597Z,6.13
2024-03-15T17:07:17.238Z,7.00
2024-03-15T17:09:46.127Z,5.45
2024-03-15T17:12:12.650Z,7.75
2024-03-15T17:14:39.202Z,5.35
2024-03-15T17:17:12.166Z,5.75
2024-03-15T17:19:42.276Z,4.95
2024-03-15T17:22:14.522Z,6.10
2024-03-15T17:24:41.120Z,8.75
2024-03-15T17:27:09.942Z,13.15
2024-03-15T17:29:38.504Z,9.77
2024-03-15T17:32:05.193Z,10.15
2024-03-15T17:34:34.413Z,7.82
2024-03-15T17:37:01.244Z,8.25
2024-03-15T17:39:30.180Z,9.90
2024-03-15T17:41:56.836Z,11.23
2024-03-15T17:44:25.668Z,9.27
2024-03-15T17:46:52.645Z,11.50
2024-03-15T17:49:19.230Z,9.75
2024-03-15T17:51:48.512Z,8.73
2024-03-15T17:54:15.074Z,8.82
2024-03-15T17:56:44.366Z,9.60
2024-03-15T17:59:13.239Z,11.90
2024-03-15T18:01:39.836Z,13.93
2024-03-15T18:04:08.774Z,11.77
2024-03-15T18:06:37.752Z,12.38
2024-03-15T18:09:04.737Z,12.00
2024-03-15T18:11:31.448Z,12.40
2024-03-15T18:13:58.095Z,11.80
2024-03-15T18:16:27.426Z,12.20
2024-03-15T18:18:56.709Z,8.60
2024-03-15T18:21:25.662Z,9.63
2024-03-15T18:23:52.345Z,12.02
2024-03-15T18:26:18.963Z,13.73
2024-03-15T18:28:45.762Z,11.38
2024-03-15T18:31:15.360Z,12.13
2024-03-15T18:33:43.303Z,11.20
2024-03-15T18:36:15.252Z,10.82
2024-03-15T18:38:42.079Z,11.30
2024-03-15T18:41:10.886Z,11.02
2024-03-15T18:43:39.904Z,11.57
2024-03-15T18:46:09.590Z,8.75
2024-03-15T18:48:36.414Z,10.70
2024-03-15T18:51:06.426Z,12.45
2024-03-15T18:53:33.020Z,9.98
2024-03-15T18:56:01.960Z,9.35
2024-03-15T18:58:30.895Z,11.07
2024-03-15T19:01:01.585Z,9.95
2024-03-15T19:03:28.320Z,10.73
2024-03-15T19:05:54.950Z,9.40
2024-03-15T19:08:23.948Z,10.00
2024-03-15T19:10:50.550Z,11.18
2024-03-15T19:13:17.234Z,10.48
2024-03-15T19:15:44.178Z,8.95
2024-03-15T19:18:13.254Z,9.13
2024-03-15T19:20:39.826Z,8.35
2024-03-15T19:23:09.387Z,9.57
2024-03-15T19:25:37.180Z,8.75
2024-03-15T19:28:04.591Z,9.95
2024-03-15T19:30:33.713Z,7.82
2024-03-15T19:33:03.452Z,8.02
2024-03-15T19:35:32.297Z,8.95
2024-03-15T19:37:59.009Z,9.73
2024-03-15T19:40:26.979Z,9.45
2024-03-15T19:42:53.837Z,9.75
2024-03-15T19:45:20.563Z,9.15
2024-03-15T19:47:47.217Z,9.63
2024-03-15T19:50:14.188Z,7.47
2024-03-15T19:52:40.701Z,8.98
2024-03-15T19:55:08.139Z,8.13
2024-03-15T19:57:35.019Z,7.35
2024-03-15T20:00:02.183Z,7.93
2024-03-15T20:02:29.387Z,8.57
2024-03-15T20:04:56.460Z,8.93
2024-03-15T20:07:25.272Z,8.13
2024-03-15T20:09:51.900Z,7.18
2024-03-15T20:12:19.397Z,8.13
2024-03-15T20:14:49.900Z,8.90
2024-03-15T20:17:16.490Z,7.47
2024-03-15T20:19:42.992Z,6.10
2024-03-15T20:22:11.826Z,7.50
2024-03-15T20:24:38.501Z,6.03
2024-03-15T20:27:05.590Z,7.38
2024-03-15T20:29:36.635Z,8.45
2024-03-15T20:32:10.527Z,7.03
2024-03-15T20:34:37.655Z,6.80
2024-03-15T20:37:07.510Z,7.65
2024-03-15T20:39:37.077Z,6.15
2024-03-15T20:42:06.025Z,7.47
2024-03-15T20:44:37.269Z,8.35
2024-03-15T20:47:05.167Z,6.15
2024-03-15T20:49:34.054Z,7.70
2024-03-15T20:52:01.522Z,7.43
2024-03-15T20:54:28.459Z,7.35
2024-03-15T20:56:58.373Z,6.53
2024-03-15T20:59:27.760Z,7.15
2024-03-15T21:01:58.228Z,6.50
2024-03-15T21:04:28.076Z,7.03
2024-03-15T21:06:54.896Z,5.93
2024-03-15T21:09:23.834Z,6.97
2024-03-15T21:11:52.584Z,7.35
2024-03-15T21:14:20.157Z,7.55
2024-03-15T21:16:46.719Z,6.20
2024-03-15T21:19:15.793Z,5.95
2024-03-15T21:21:44.771Z,8.10
2024-03-15T21:24:11.507Z,6.18
2024-03-15T21:26:38.235Z,6.53
2024-03-15T21:29:04.726Z,6.15
2024-03-15T21:31:31.262Z,5.28
2024-03-15T21:33:59.973Z,5.95
2024-03-15T21:36:27.569Z,6.45
2024-03-15T21:38:54.189Z,5.65
2024-03-15T21:41:20.741Z,7.07
2024-03-15T21:43:50.384Z,6.57
2024-03-15T21:46:33.193Z,6.45
2024-03-15T21:49:02.135Z,4.78
2024-03-15T21:51:28.996Z,5.50
2024-03-15T21:53:58.122Z,4.30
2024-03-15T21:56:24.643Z,6.05
2024-03-15T21:58:51.474Z,5.55
2024-03-15T22:01:18.867Z,4.75
2024-03-15T22:03:49.237Z,5.43
2024-03-15T22:06:15.979Z,4.78
2024-03-15T22:08:42.578Z,4.43
2024-03-15T22:11:11.643Z,5.25
2024-03-15T22:13:38.396Z,4.35
2024-03-15T22:16:05.481Z,3.75
2024-03-15T22:18:34.417Z,3.80
2024-03-15T22:21:05.300Z,4.70
2024-03-15T22:23:34.101Z,5.18
2024-03-15T22:26:01.620Z,4.80
2024-03-15T22:28:31.292Z,3.50
2024-03-15T22:30:57.824Z,4.00
2024-03-15T22:33:26.993Z,3.75
2024-03-15T22:36:00.756Z,4.72
2024-03-15T22:38:52.684Z,4.55
2024-03-15T22:41:23.230Z,3.67
2024-03-15T22:43:52.418Z,3.80
2024-03-15T22:46:23.812Z,4.90
2024-03-15T22:48:52.837Z,3.80
2024-03-15T22:51:21.920Z,3.53
2024-03-15T22:53:48.650Z,3.42
2024-03-15T22:56:15.261Z,3.70
2024-03-15T22:58:41.798Z,3.55
2024-03-15T23:01:12.904Z,2.63
2024-03-15T23:03:40.904Z,4.20
2024-03-15T23:06:11.229Z,4.13
2024-03-15T23:08:40.216Z,2.70
2024-03-15T23:11:07.348Z,2.88
2024-03-15T23:13:36.229Z,4.05
2024-03-15T23:16:04.810Z,2.92
2024-03-15T23:18:31.484Z,2.70
2024-03-15T23:21:02.372Z,3.13
2024-03-15T23:25:56.978Z,4.15
2024-03-15T23:28:26.668Z,3.83
2024-03-15T23:30:55.622Z,3.63
2024-03-15T23:33:25.150Z,3.97
2024-03-15T23:35:54.661Z,2.47
2024-03-15T23:38:21.233Z,3.90
2024-03-15T23:40:50.089Z,3.97
2024-03-15T23:43:22.635Z,3.22
2024-03-15T23:45:53.887Z,2.95
2024-03-15T23:48:31.992Z,2.83
2024-03-15T23:51:00.841Z,2.92
2024-03-15T23:53:27.538Z,2.95
2024-03-15T23:55:55.115Z,2.78
2024-03-15T23:58:22.409Z,2.50
